Time;durP1;ratioP1;P1;durP2;ratioP2;P2;SDS_P1;SDS_P2;PMS_P1;PMS_P2;Temp;Humidity;BMP_temperature;BMP_pressure;BME280_temperature;BME280_humidity;BME280_pressure;Samples;Min_cycle;Max_cycle;Signal;HPM_P1;HPM_P2
2021/07/25 00:01:04;;;;;;;12.40;8.87;;;;;;;21.21;100.00;99873.19;5160576;28;20057;-77
2021/07/25 00:03:34;;;;;;;12.45;8.45;;;;;;;21.10;100.00;99860.00;5162421;28;20356;-77
2021/07/25 00:06:05;;;;;;;15.47;8.83;;;;;;;20.83;100.00;99862.41;5161828;28;20473;-77
2021/07/25 00:08:35;;;;;;;11.57;8.63;;;;;;;20.83;100.00;99868.63;5164859;28;20281;-77
2021/07/25 00:11:05;;;;;;;13.90;8.90;;;;;;;20.48;100.00;99859.38;5168545;28;20273;-76
2021/07/25 00:13:39;;;;;;;14.30;9.05;;;;;;;20.18;100.00;99848.78;5159252;28;20516;-77
2021/07/25 00:16:10;;;;;;;14.20;9.02;;;;;;;20.44;100.00;99857.97;5160962;28;20162;-77
2021/07/25 00:18:40;;;;;;;18.48;8.15;;;;;;;20.49;100.00;99853.09;5161697;28;20038;-77
2021/07/25 00:21:10;;;;;;;14.33;9.00;;;;;;;20.43;100.00;99852.81;5160669;28;20587;-77
2021/07/25 00:23:47;;;;;;;18.65;8.73;;;;;;;20.42;100.00;99859.91;5160060;28;20280;-77
2021/07/25 00:26:24;;;;;;;14.55;7.68;;;;;;;20.38;100.00;99855.00;5158116;28;20113;-77
2021/07/25 00:28:55;;;;;;;15.85;8.57;;;;;;;20.16;100.00;99850.72;5160274;28;20042;-76
2021/07/25 00:31:27;;;;;;;16.20;8.37;;;;;;;20.18;100.00;99858.56;5159611;28;20126;-77
2021/07/25 00:33:58;;;;;;;11.25;7.47;;;;;;;20.25;100.00;99860.53;5160977;28;20352;-77
2021/07/25 00:36:28;;;;;;;11.85;7.55;;;;;;;20.20;100.00;99867.22;5161849;28;20034;-78
2021/07/25 00:38:58;;;;;;;14.63;7.90;;;;;;;20.00;100.00;99876.88;5166759;28;20026;-77
2021/07/25 00:41:28;;;;;;;10.25;6.88;;;;;;;20.08;100.00;99869.13;5163501;28;20725;-77
2021/07/25 00:44:11;;;;;;;10.83;6.80;;;;;;;20.06;100.00;99881.69;5161430;28;20028;-77
2021/07/25 00:46:42;;;;;;;12.02;6.97;;;;;;;20.15;100.00;99888.00;5148303;28;20282;-77
2021/07/25 00:49:15;;;;;;;10.52;6.95;;;;;;;20.17;100.00;99880.75;5160655;28;20030;-77
2021/07/25 00:51:46;;;;;;;8.13;6.50;;;;;;;20.29;100.00;99872.56;5160486;28;20022;-77
2021/07/25 00:54:16;;;;;;;10.00;7.22;;;;;;;20.22;100.00;99886.50;5161775;28;20029;-77
2021/07/25 00:56:47;;;;;;;10.30;6.93;;;;;;;20.09;100.00;99888.53;5161557;28;20034;-77
2021/07/25 00:59:17;;;;;;;11.88;7.05;;;;;;;19.94;100.00;99882.69;5159177;28;20034;-77
2021/07/25 01:01:48;;;;;;;12.23;6.75;;;;;;;20.04;100.00;99880.97;5161109;28;20484;-77
2021/07/25 01:04:37;;;;;;;13.25;6.70;;;;;;;20.00;100.00;99876.00;5160698;28;20026;-77
2021/07/25 01:07:26;;;;;;;10.40;6.35;;;;;;;20.11;100.00;99878.63;5160746;28;20034;-77
2021/07/25 01:10:10;;;;;;;11.07;6.97;;;;;;;20.32;100.00;99874.13;5168090;28;20029;-77
2021/07/25 01:13:03;;;;;;;10.55;6.80;;;;;;;20.28;100.00;99865.59;5163865;28;20022;-77
2021/07/25 01:15:34;;;;;;;10.40;6.90;;;;;;;20.21;100.00;99864.44;5169863;28;20038;-77
2021/07/25 01:18:05;;;;;;;9.57;6.88;;;;;;;20.18;100.00;99864.72;5156956;28;20030;-77
2021/07/25 01:20:35;;;;;;;10.18;7.00;;;;;;;20.13;100.00;99863.41;5163434;28;20097;-77
2021/07/25 01:23:05;;;;;;;10.70;7.03;;;;;;;20.17;100.00;99868.34;5168954;28;20041;-77
2021/07/25 01:25:36;;;;;;;10.32;6.40;;;;;;;20.20;100.00;99873.38;5171342;28;20041;-77
2021/07/25 01:28:19;;;;;;;9.32;6.75;;;;;;;20.14;100.00;99873.88;5169284;28;20463;-77
2021/07/25 01:30:57;;;;;;;11.23;7.28;;;;;;;20.11;100.00;99873.31;5166218;28;20467;-76
2021/07/25 01:33:33;;;;;;;13.68;7.22;;;;;;;19.97;100.00;99877.09;5170396;28;20412;-77
2021/07/25 01:36:04;;;;;;;15.23;7.40;;;;;;;20.04;100.00;99880.13;5169166;28;20117;-76
2021/07/25 01:38:34;;;;;;;15.25;7.70;;;;;;;19.88;100.00;99872.59;5166013;28;20113;-76
2021/07/25 01:41:10;;;;;;;13.18;7.63;;;;;;;19.83;100.00;99876.59;5165358;28;20035;-76
2021/07/25 01:43:43;;;;;;;13.95;7.88;;;;;;;19.71;100.00;99886.44;5157721;28;20044;-77
2021/07/25 01:46:13;;;;;;;11.82;7.07;;;;;;;19.79;100.00;99886.63;5164481;28;20369;-77
2021/07/25 01:48:44;;;;;;;13.60;7.93;;;;;;;19.70;100.00;99889.19;5155068;28;20069;-77
2021/07/25 01:51:15;;;;;;;12.35;7.47;;;;;;;19.77;100.00;99896.53;5155977;28;20404;-77
2021/07/25 01:53:45;;;;;;;14.40;8.05;;;;;;;19.71;100.00;99885.56;5153453;28;20123;-77
2021/07/25 01:56:15;;;;;;;10.23;7.55;;;;;;;19.76;100.00;99892.19;5161007;28;20076;-77
2021/07/25 01:58:46;;;;;;;12.87;7.90;;;;;;;19.77;100.00;99896.53;5157740;28;20390;-77
2021/07/25 02:01:16;;;;;;;11.75;7.18;;;;;;;19.74;100.00;99902.09;5163980;28;20273;-79
2021/07/25 02:03:47;;;;;;;16.30;7.53;;;;;;;19.67;100.00;99895.63;5161759;28;20027;-77
2021/07/25 02:06:17;;;;;;;11.30;7.10;;;;;;;19.63;100.00;99898.66;5164720;28;20053;-78
2021/07/25 02:08:47;;;;;;;14.60;7.95;;;;;;;19.58;100.00;99901.69;5166247;28;20282;-79
2021/07/25 02:11:19;;;;;;;12.87;7.87;;;;;;;19.52;100.00;99912.81;5168325;28;20026;-78
2021/07/25 02:13:49;;;;;;;9.90;7.00;;;;;;;19.57;100.00;99905.28;5163259;28;20298;-76
2021/07/25 02:16:20;;;;;;;10.47;7.57;;;;;;;19.39;100.00;99900.66;5171975;28;20414;-79
2021/07/25 02:18:50;;;;;;;17.90;8.00;;;;;;;19.15;100.00;99908.78;5165506;28;20270;-77
2021/07/25 02:21:20;;;;;;;14.30;7.97;;;;;;;19.25;100.00;99914.22;5166153;28;20538;-78
2021/07/25 02:23:50;;;;;;;11.87;7.27;;;;;;;19.46;100.00;99921.22;5165516;28;20277;-79
2021/07/25 02:26:21;;;;;;;12.93;7.65;;;;;;;19.47;100.00;99922.91;5166202;28;20301;-79
2021/07/25 02:28:51;;;;;;;12.87;7.63;;;;;;;19.46;100.00;99923.88;5165110;28;20075;-79
2021/07/25 02:31:21;;;;;;;9.67;7.33;;;;;;;19.59;100.00;99919.25;5164744;28;20807;-79
2021/07/25 02:33:51;;;;;;;9.53;7.20;;;;;;;19.50;100.00;99922.69;5164863;28;20380;-77
2021/07/25 02:36:22;;;;;;;9.37;7.03;;;;;;;19.49;100.00;99922.81;5164848;28;20277;-77
2021/07/25 02:38:52;;;;;;;12.93;7.38;;;;;;;19.41;100.00;99926.09;5171295;28;20364;-76
2021/07/25 02:41:22;;;;;;;13.20;7.78;;;;;;;19.21;100.00;99926.88;5173581;28;20038;-78
2021/07/25 02:43:52;;;;;;;13.25;7.82;;;;;;;19.38;100.00;99928.13;5167678;28;20022;-78
2021/07/25 02:46:23;;;;;;;11.05;7.38;;;;;;;19.34;100.00;99927.56;5174952;28;20045;-76
2021/07/25 02:48:53;;;;;;;11.35;7.15;;;;;;;19.41;100.00;99928.72;5165701;28;20447;-78
2021/07/25 02:51:23;;;;;;;12.15;7.70;;;;;;;19.21;100.00;99929.53;5167021;28;20492;-77
2021/07/25 02:53:54;;;;;;;9.75;7.00;;;;;;;19.22;100.00;99925.03;5166999;28;20086;-78
2021/07/25 02:56:24;;;;;;;10.07;7.40;;;;;;;19.31;100.00;99933.09;5166588;28;20121;-80
2021/07/25 02:58:54;;;;;;;16.27;7.88;;;;;;;19.13;100.00;99934.53;5165602;28;20274;-77
2021/07/25 03:01:24;;;;;;;20.10;7.10;;;;;;;18.74;100.00;99935.09;5166788;28;20039;-79
2021/07/25 03:03:55;;;;;;;16.83;8.32;;;;;;;18.55;100.00;99931.34;5165637;28;20101;-79
2021/07/25 03:06:25;;;;;;;19.33;7.78;;;;;;;18.46;100.00;99939.16;5166000;28;20285;-80
2021/07/25 03:08:55;;;;;;;11.45;7.70;;;;;;;18.39;100.00;99932.69;5175000;28;20026;-80
2021/07/25 03:11:26;;;;;;;13.33;7.83;;;;;;;18.39;100.00;99946.75;5175298;28;20022;-79
2021/07/25 03:13:56;;;;;;;16.37;7.63;;;;;;;18.54;100.00;99942.91;5172453;28;20293;-79
2021/07/25 03:16:26;;;;;;;11.85;7.50;;;;;;;18.48;100.00;99950.50;5179416;28;20276;-79
2021/07/25 03:18:57;;;;;;;11.57;6.72;;;;;;;18.49;100.00;99952.19;5168704;28;20392;-78
2021/07/25 03:21:27;;;;;;;9.70;6.80;;;;;;;18.63;100.00;99957.22;5169925;28;20030;-77
2021/07/25 03:23:57;;;;;;;11.88;7.22;;;;;;;18.72;100.00;99961.81;5168909;28;20496;-77
2021/07/25 03:26:27;;;;;;;14.15;7.68;;;;;;;18.74;100.00;99969.50;5168328;28;20068;-77
2021/07/25 03:28:58;;;;;;;14.50;8.13;;;;;;;18.75;100.00;99970.38;5177050;28;20351;-78
2021/07/25 03:31:28;;;;;;;15.55;8.60;;;;;;;18.86;100.00;99971.19;5169711;28;20029;-78
2021/07/25 03:33:59;;;;;;;12.68;7.55;;;;;;;18.80;100.00;99960.25;5169889;28;20023;-80
2021/07/25 03:36:30;;;;;;;11.25;7.60;;;;;;;18.63;100.00;99967.81;5170282;28;20052;-78
2021/07/25 03:39:00;;;;;;;11.00;7.47;;;;;;;18.67;100.00;99967.47;5174463;28;20472;-79
2021/07/25 03:41:30;;;;;;;11.52;7.22;;;;;;;18.79;100.00;99959.38;5173962;28;20038;-79
2021/07/25 03:44:00;;;;;;;10.75;7.07;;;;;;;18.69;100.00;99973.47;5170401;28;20030;-79
2021/07/25 03:46:31;;;;;;;10.80;6.93;;;;;;;18.86;100.00;99971.19;5178718;28;20025;-78
2021/07/25 03:49:02;;;;;;;11.43;6.85;;;;;;;18.77;100.00;99966.63;5168273;28;20281;-77
2021/07/25 03:51:32;;;;;;;14.25;6.75;;;;;;;18.77;100.00;99969.25;5168150;28;20133;-79
2021/07/25 03:54:04;;;;;;;11.57;7.30;;;;;;;18.64;100.00;99975.66;5170026;28;20090;-79
2021/07/25 03:56:35;;;;;;;13.20;7.55;;;;;;;18.46;100.00;99981.50;5168427;28;20819;-79
2021/07/25 03:59:05;;;;;;;11.20;7.70;;;;;;;18.47;100.00;99988.47;5170006;28;20023;-80
2021/07/25 04:01:36;;;;;;;12.85;7.75;;;;;;;18.61;100.00;99985.63;5168090;28;20049;-79
2021/07/25 04:04:06;;;;;;;17.98;7.47;;;;;;;18.61;100.00;99985.63;5168560;28;20022;-76
2021/07/25 04:06:36;;;;;;;16.05;7.57;;;;;;;18.70;100.00;99982.28;5168529;28;20060;-77
2021/07/25 04:09:07;;;;;;;15.68;7.85;;;;;;;18.54;100.00;99981.78;5174909;28;20353;-76
2021/07/25 04:11:37;;;;;;;17.63;8.83;;;;;;;18.50;100.00;99990.91;5173291;28;20026;-78
2021/07/25 04:14:07;;;;;;;28.63;9.45;;;;;;;17.79;100.00;99998.97;5171457;28;20289;-79
2021/07/25 04:16:37;;;;;;;20.37;8.27;;;;;;;17.84;100.00;100004.75;5176301;28;20538;-78
2021/07/25 04:19:08;;;;;;;20.50;7.63;;;;;;;17.86;100.00;100007.28;5166597;28;20636;-77
2021/07/25 04:21:38;;;;;;;21.83;8.20;;;;;;;17.88;100.00;100010.66;5167990;28;20273;-76
2021/07/25 04:24:08;;;;;;;21.43;7.23;;;;;;;18.20;100.00;100009.09;5169505;28;20367;-79
2021/07/25 04:26:39;;;;;;;14.40;6.50;;;;;;;18.31;100.00;100009.16;5168240;28;20284;-78
2021/07/25 04:29:09;;;;;;;11.30;6.22;;;;;;;18.52;100.00;100004.88;5168622;28;20030;-79
2021/07/25 04:31:40;;;;;;;15.77;7.30;;;;;;;18.38;100.00;100013.84;5168242;28;20113;-80
2021/07/25 04:34:11;;;;;;;10.45;6.63;;;;;;;18.51;100.00;100013.78;5169759;28;20056;-80
2021/07/25 04:36:43;;;;;;;13.50;6.40;;;;;;;18.61;100.00;100006.78;5169245;28;20026;-77
2021/07/25 04:39:14;;;;;;;14.90;7.20;;;;;;;18.47;100.00;100009.66;5176209;28;20022;-77
2021/07/25 04:41:49;;;;;;;12.77;6.70;;;;;;;18.62;100.00;100014.63;5173535;28;20056;-80
2021/07/25 04:44:32;;;;;;;10.70;6.93;;;;;;;18.73;100.00;100022.59;5170521;28;20455;-75
2021/07/25 04:47:04;;;;;;;13.63;6.88;;;;;;;18.50;100.00;100014.75;5176388;28;20045;-80
2021/07/25 04:49:49;;;;;;;10.43;6.60;;;;;;;18.48;100.00;100024.59;5169104;28;20037;-77
2021/07/25 04:52:22;;;;;;;11.50;7.32;;;;;;;18.60;100.00;100021.00;5165746;28;20054;-78
2021/07/25 04:54:56;;;;;;;11.07;6.47;;;;;;;18.62;100.00;100025.22;5168350;28;20381;-79
2021/07/25 04:57:27;;;;;;;10.10;6.38;;;;;;;18.70;100.00;100033.41;5168797;28;20121;-80
2021/07/25 04:59:58;;;;;;;10.40;6.18;;;;;;;18.90;100.00;100035.38;5167793;28;20927;-80
2021/07/25 05:02:31;;;;;;;9.35;6.53;;;;;;;18.99;100.00;100034.63;5168544;28;20112;-79
2021/07/25 05:05:02;;;;;;;13.02;8.05;;;;;;;18.67;100.00;100032.81;5167362;28;20035;-80
2021/07/25 05:07:37;;;;;;;15.05;8.30;;;;;;;18.60;100.00;100035.09;5169180;28;20507;-80
2021/07/25 05:10:09;;;;;;;20.27;9.10;;;;;;;18.45;100.00;100030.09;5177478;28;20030;-78
2021/07/25 05:12:55;;;;;;;15.65;9.48;;;;;;;18.84;100.00;100033.19;5169034;28;20317;-80
2021/07/25 05:15:31;;;;;;;17.60;8.27;;;;;;;19.81;100.00;100019.13;5173914;28;20079;-79
2021/07/25 05:18:07;;;;;;;16.85;7.82;;;;;;;19.25;100.00;100026.34;5172786;28;20554;-79
2021/07/25 05:20:57;;;;;;;15.35;7.90;;;;;;;20.46;100.00;100022.47;5166989;28;20050;-78
2021/07/25 05:23:32;;;;;;;15.48;6.75;;;;;;;21.78;98.23;100023.03;5165023;28;20033;-80
2021/07/25 05:26:09;;;;;;;15.05;6.15;;;;;;;25.01;84.09;100011.53;5168691;28;20065;-77
2021/07/25 05:28:42;;;;;;;13.98;6.65;;;;;;;23.87;85.86;100017.16;5169245;28;20030;-79
2021/07/25 05:31:13;;;;;;;19.70;6.95;;;;;;;23.60;87.51;100025.16;5167153;28;20476;-78
2021/07/25 05:33:44;;;;;;;17.20;7.85;;;;;;;21.66;97.86;100028.59;5166773;28;20037;-78
2021/07/25 05:36:14;;;;;;;16.33;7.53;;;;;;;21.57;100.00;100029.41;5169305;28;20026;-80
2021/07/25 05:38:44;;;;;;;16.47;7.10;;;;;;;22.54;93.59;100022.19;5170895;28;20324;-79
2021/07/25 05:41:15;;;;;;;13.00;6.40;;;;;;;24.58;87.28;100011.59;5173321;28;20274;-80
2021/07/25 05:43:45;;;;;;;11.50;6.05;;;;;;;25.43;83.98;100010.59;5168508;28;20358;-78
2021/07/25 05:46:15;;;;;;;13.75;6.30;;;;;;;27.12;77.07;100002.44;5177715;28;20084;-78
2021/07/25 05:48:45;;;;;;;9.95;5.25;;;;;;;28.17;74.16;100000.03;5167132;28;20033;-79
2021/07/25 05:51:16;;;;;;;12.20;5.67;;;;;;;30.68;66.50;100000.91;5167465;28;20026;-79
2021/07/25 05:53:47;;;;;;;14.03;6.80;;;;;;;29.92;68.71;100008.03;5167371;28;20822;-81
2021/07/25 05:56:17;;;;;;;21.77;8.93;;;;;;;26.50;79.40;100015.00;5168143;28;20288;-79
2021/07/25 05:58:47;;;;;;;18.13;8.50;;;;;;;28.31;73.89;100007.34;5166991;28;20026;-78
2021/07/25 06:01:17;;;;;;;17.77;8.23;;;;;;;29.95;69.33;99999.56;5166756;28;20065;-79
2021/07/25 06:03:49;;;;;;;19.07;8.13;;;;;;;28.35;75.06;100005.97;5171497;28;20030;-79
2021/07/25 06:06:19;;;;;;;22.63;8.25;;;;;;;29.05;72.24;100008.16;5171574;28;20084;-79
2021/07/25 06:08:50;;;;;;;21.07;9.60;;;;;;;27.42;79.01;100011.56;5176744;28;20540;-77
2021/07/25 06:11:22;;;;;;;25.00;9.43;;;;;;;28.05;78.45;100010.38;5176237;28;20030;-78
2021/07/25 06:13:52;;;;;;;15.20;10.55;;;;;;;27.28;77.26;100007.75;5172740;28;20301;-78
2021/07/25 06:16:23;;;;;;;13.32;10.07;;;;;;;27.50;75.31;100006.16;5173659;28;20030;-79
2021/07/25 06:18:53;;;;;;;11.90;8.98;;;;;;;25.95;80.99;100016.59;5173255;28;20033;-78
2021/07/25 06:21:25;;;;;;;13.83;10.67;;;;;;;24.97;84.25;100018.22;5170849;28;20028;-78
2021/07/25 06:23:56;;;;;;;12.70;10.05;;;;;;;25.35;83.38;100015.06;5172375;28;20276;-78
2021/07/25 06:26:27;;;;;;;15.82;10.30;;;;;;;25.20;84.20;100011.31;5176489;28;20095;-77
2021/07/25 06:28:57;;;;;;;13.95;10.45;;;;;;;24.82;85.23;100014.44;5169279;28;20118;-78
2021/07/25 06:31:27;;;;;;;11.40;9.77;;;;;;;25.16;86.49;99999.25;5170915;28;20034;-78
2021/07/25 06:33:57;;;;;;;12.57;10.80;;;;;;;24.88;88.99;100011.97;5169239;28;20037;-78
2021/07/25 06:36:28;;;;;;;16.50;11.02;;;;;;;25.38;86.66;100002.22;5171710;28;20056;-77
2021/07/25 06:38:58;;;;;;;13.50;10.73;;;;;;;26.64;81.03;100003.56;5172886;28;20137;-78
2021/07/25 06:41:28;;;;;;;14.27;10.87;;;;;;;26.33;76.98;99997.22;5172419;28;20274;-79
2021/07/25 06:43:58;;;;;;;13.93;11.10;;;;;;;26.48;78.06;99995.53;5179983;28;20272;-78
2021/07/25 06:46:29;;;;;;;14.67;10.03;;;;;;;27.18;74.91;99996.41;5182874;28;20895;-78
2021/07/25 06:48:59;;;;;;;15.60;11.40;;;;;;;27.30;71.48;99992.31;5172131;28;20126;-79
2021/07/25 06:51:29;;;;;;;12.93;9.57;;;;;;;27.96;70.11;99997.19;5177650;28;20169;-79
2021/07/25 06:54:00;;;;;;;13.53;10.07;;;;;;;28.28;68.49;99987.00;5177891;28;20037;-80
2021/07/25 06:56:30;;;;;;;13.53;8.93;;;;;;;28.20;72.16;99999.69;5179184;28;20336;-80
2021/07/25 06:59:00;;;;;;;11.30;8.70;;;;;;;28.62;71.66;99984.69;5174884;28;20273;-80
2021/07/25 07:01:30;;;;;;;12.77;9.33;;;;;;;30.42;64.20;99987.16;5173812;28;20667;-80
2021/07/25 07:04:01;;;;;;;12.70;8.57;;;;;;;30.96;61.60;99989.03;5177474;28;20029;-80
2021/07/25 07:06:31;;;;;;;11.17;8.80;;;;;;;30.51;61.22;99988.72;5176384;28;20034;-80
2021/07/25 07:09:01;;;;;;;12.93;9.00;;;;;;;29.54;64.02;99990.41;5181469;28;20049;-80
2021/07/25 07:11:32;;;;;;;12.98;8.43;;;;;;;31.02;62.42;99985.53;5180486;28;20654;-79
2021/07/25 07:14:02;;;;;;;11.85;8.20;;;;;;;29.63;63.38;99986.56;5178483;28;20061;-79
2021/07/25 07:16:32;;;;;;;17.88;9.27;;;;;;;28.32;65.80;99992.91;5180179;28;20042;-79
2021/07/25 07:19:03;;;;;;;11.00;8.67;;;;;;;27.85;68.38;100000.28;5171007;28;20033;-79
2021/07/25 07:21:33;;;;;;;12.20;8.98;;;;;;;26.99;69.39;99998.63;5177816;28;20054;-79
2021/07/25 07:24:04;;;;;;;14.27;9.47;;;;;;;26.79;70.95;100003.53;5175544;28;20022;-79
2021/07/25 07:26:34;;;;;;;13.95;9.00;;;;;;;27.43;71.93;99995.28;5178230;28;20033;-79
2021/07/25 07:29:04;;;;;;;14.15;9.73;;;;;;;26.19;75.58;100003.22;5177732;28;20030;-79
2021/07/25 07:31:35;;;;;;;12.00;9.13;;;;;;;26.14;76.34;100003.72;5173931;28;20065;-79
2021/07/25 07:34:05;;;;;;;13.00;9.97;;;;;;;25.77;79.45;100005.13;5177847;28;20293;-79
2021/07/25 07:36:35;;;;;;;10.83;8.53;;;;;;;25.96;75.59;100013.75;5175143;28;20034;-79
2021/07/25 07:39:05;;;;;;;13.77;9.57;;;;;;;26.51;72.95;100000.56;5174178;28;20108;-78
2021/07/25 07:41:36;;;;;;;17.63;9.93;;;;;;;26.24;74.79;100007.09;5183969;28;20364;-79
2021/07/25 07:44:06;;;;;;;14.93;9.77;;;;;;;25.62;78.39;100015.66;5173973;28;20088;-79
2021/07/25 07:46:36;;;;;;;13.45;10.32;;;;;;;25.51;74.68;100012.44;5176837;28;20270;-79
2021/07/25 07:49:07;;;;;;;14.47;10.27;;;;;;;26.35;74.79;100013.94;5168950;28;20033;-79
2021/07/25 07:51:37;;;;;;;13.88;10.55;;;;;;;27.46;73.21;100004.84;5170607;28;20281;-79
2021/07/25 07:54:07;;;;;;;13.15;9.02;;;;;;;30.05;64.14;100002.81;5169008;28;20366;-79
2021/07/25 07:56:37;;;;;;;10.90;8.27;;;;;;;31.99;60.49;100004.09;5175807;28;20400;-79
2021/07/25 07:59:08;;;;;;;11.40;8.17;;;;;;;32.45;57.51;100004.16;5169039;28;20030;-79
2021/07/25 08:01:38;;;;;;;11.23;8.47;;;;;;;31.30;59.63;100013.38;5170184;28;20109;-79
2021/07/25 08:04:08;;;;;;;16.33;8.93;;;;;;;31.44;57.77;100014.25;5173464;28;20999;-79
2021/07/25 08:06:39;;;;;;;11.83;7.70;;;;;;;32.39;56.84;100016.63;5180120;28;20026;-79
2021/07/25 08:09:09;;;;;;;12.65;7.85;;;;;;;31.06;59.50;100031.91;5182851;28;20109;-78
2021/07/25 08:11:46;;;;;;;11.67;7.93;;;;;;;33.50;56.24;100017.34;5178183;28;20030;-79
2021/07/25 08:14:19;;;;;;;12.75;7.68;;;;;;;33.49;54.17;100015.69;5174373;28;20083;-79
2021/07/25 08:16:49;;;;;;;12.05;8.23;;;;;;;32.31;57.09;100016.84;5176617;28;20026;-78
2021/07/25 08:19:20;;;;;;;11.87;7.67;;;;;;;34.32;54.22;100021.72;5166886;28;20030;-78
2021/07/25 08:21:50;;;;;;;9.27;7.30;;;;;;;33.89;54.10;100014.47;5169968;28;20038;-79
2021/07/25 08:24:21;;;;;;;11.38;8.05;;;;;;;34.11;52.77;100022.06;5172130;28;20639;-79
2021/07/25 08:26:51;;;;;;;9.53;6.80;;;;;;;35.91;50.66;100017.81;5169712;28;20034;-79
2021/07/25 08:29:21;;;;;;;11.50;7.90;;;;;;;32.94;55.35;100022.47;5167833;28;20030;-79
2021/07/25 08:31:51;;;;;;;14.33;7.33;;;;;;;34.51;53.75;100022.66;5170057;28;20690;-78
2021/07/25 08:34:22;;;;;;;13.13;7.40;;;;;;;34.00;53.51;100020.03;5169857;28;20285;-79
2021/07/25 08:36:52;;;;;;;13.90;7.67;;;;;;;32.66;56.13;100017.47;5165761;28;20508;-77
2021/07/25 08:39:23;;;;;;;10.45;7.38;;;;;;;34.17;52.96;100009.50;5169293;28;20037;-78
2021/07/25 08:42:04;;;;;;;10.85;7.30;;;;;;;34.88;51.22;100006.22;5171701;28;20028;-78
2021/07/25 08:44:48;;;;;;;11.70;7.10;;;;;;;34.95;50.35;100008.88;5165511;28;20462;-78
2021/07/25 08:47:36;;;;;;;10.93;6.05;;;;;;;33.98;54.91;100016.72;5166782;28;20293;-78
2021/07/25 08:50:14;;;;;;;9.27;6.18;;;;;;;36.06;51.62;99998.31;5168115;28;20488;-78
2021/07/25 08:52:51;;;;;;;8.70;5.93;;;;;;;35.00;52.98;100009.06;5164267;28;20500;-79
2021/07/25 08:55:22;;;;;;;9.13;6.45;;;;;;;35.37;51.14;100004.25;5167111;28;20723;-79
2021/07/25 08:57:53;;;;;;;7.00;5.90;;;;;;;36.16;50.35;100010.34;5167257;28;20022;-79
2021/07/25 09:00:23;;;;;;;9.52;6.93;;;;;;;35.69;51.28;100013.09;5167083;28;20531;-79
2021/07/25 09:02:57;;;;;;;9.45;6.80;;;;;;;35.88;49.81;100017.44;5167885;28;20065;-78
2021/07/25 09:05:27;;;;;;;10.77;7.07;;;;;;;33.70;53.43;100023.56;5167475;28;20026;-79
2021/07/25 09:07:58;;;;;;;11.07;6.75;;;;;;;34.31;52.71;100022.78;5168743;28;20037;-79
2021/07/25 09:10:29;;;;;;;9.23;6.60;;;;;;;33.07;54.40;100021.63;5176893;28;20081;-79
2021/07/25 09:12:59;;;;;;;8.98;6.93;;;;;;;34.49;51.93;100024.75;5167887;28;20032;-79
2021/07/25 09:15:35;;;;;;;11.30;7.40;;;;;;;32.80;57.27;100025.44;5165429;28;20408;-79
2021/07/25 09:18:05;;;;;;;9.05;6.10;;;;;;;33.86;53.83;100021.16;5168534;28;20029;-77
2021/07/25 09:20:40;;;;;;;9.50;6.50;;;;;;;31.93;57.40;100031.09;5169624;28;20026;-78
2021/07/25 09:23:16;;;;;;;10.02;6.55;;;;;;;30.86;60.05;100023.66;5166377;28;20277;-79
2021/07/25 09:25:57;;;;;;;12.15;6.60;;;;;;;30.28;62.04;100038.50;5163356;28;20034;-77
2021/07/25 09:28:33;;;;;;;8.73;6.72;;;;;;;29.74;63.83;100026.50;5163512;28;20034;-78
2021/07/25 09:31:14;;;;;;;10.85;6.95;;;;;;;30.93;59.66;100032.66;5164878;28;20034;-79
2021/07/25 09:33:46;;;;;;;8.95;6.60;;;;;;;31.04;59.92;100034.78;5171268;28;20049;-77
2021/07/25 09:36:21;;;;;;;8.25;6.53;;;;;;;31.24;58.89;100041.19;5167559;28;20023;-78
2021/07/25 09:38:55;;;;;;;10.45;6.97;;;;;;;30.02;61.07;100035.50;5164084;28;20049;-78
2021/07/25 09:41:26;;;;;;;11.23;7.45;;;;;;;30.68;61.78;100032.44;5164978;28;20030;-78
2021/07/25 09:44:12;;;;;;;8.77;7.18;;;;;;;31.22;58.71;100032.44;5170839;28;20029;-77
2021/07/25 09:46:49;;;;;;;12.18;7.60;;;;;;;31.22;60.79;100029.72;5173203;28;20076;-78
2021/07/25 09:49:19;;;;;;;9.63;7.05;;;;;;;30.76;59.39;100026.91;5170557;28;20033;-78
2021/07/25 09:51:49;;;;;;;11.20;7.10;;;;;;;29.41;63.27;100025.22;5171327;28;20503;-78
2021/07/25 09:54:24;;;;;;;9.35;7.47;;;;;;;29.38;64.84;100025.59;5170973;28;20037;-77
2021/07/25 09:57:07;;;;;;;12.10;7.90;;;;;;;28.66;65.26;100034.41;5166803;28;20030;-77
2021/07/25 09:59:38;;;;;;;13.23;8.43;;;;;;;28.53;66.22;100022.63;5167950;28;20030;-77
2021/07/25 10:02:34;;;;;;;10.27;7.18;;;;;;;28.55;65.58;100029.50;5168117;28;20996;-77
2021/07/25 10:05:07;;;;;;;12.80;8.07;;;;;;;28.19;67.70;100031.13;5173620;28;20040;-78
2021/07/25 10:07:38;;;;;;;11.93;7.97;;;;;;;27.97;68.53;100034.59;5167607;28;20036;-76
2021/07/25 10:10:11;;;;;;;10.05;7.53;;;;;;;27.84;69.30;100031.69;5177443;28;20030;-78
2021/07/25 10:12:44;;;;;;;11.95;7.38;;;;;;;27.86;67.97;100039.56;5165109;28;20030;-78
2021/07/25 10:15:16;;;;;;;9.45;7.68;;;;;;;27.47;70.11;100034.19;5166750;28;20125;-78
2021/07/25 10:17:47;;;;;;;8.95;7.35;;;;;;;27.72;68.50;100029.56;5175389;28;20101;-78
2021/07/25 10:20:19;;;;;;;11.25;7.75;;;;;;;27.32;69.17;100029.72;5173089;28;20109;-78
2021/07/25 10:22:51;;;;;;;11.13;7.53;;;;;;;27.02;72.67;100033.16;5173669;28;20022;-77
2021/07/25 10:25:23;;;;;;;10.50;7.88;;;;;;;27.19;72.55;100037.50;5173089;28;20026;-78
2021/07/25 10:27:57;;;;;;;11.00;8.00;;;;;;;27.03;72.28;100041.03;5174759;28;20055;-78
2021/07/25 10:30:28;;;;;;;9.95;7.63;;;;;;;27.01;74.61;100037.69;5172206;28;20026;-78
2021/07/25 10:32:59;;;;;;;12.52;7.93;;;;;;;26.74;73.97;100035.38;5172974;28;20056;-78
2021/07/25 10:35:30;;;;;;;13.57;8.05;;;;;;;26.88;72.98;100032.00;5173733;28;20349;-77
2021/07/25 10:38:02;;;;;;;13.80;8.27;;;;;;;27.19;72.95;100024.06;5175992;28;20040;-78
2021/07/25 10:40:33;;;;;;;10.77;7.70;;;;;;;26.80;72.55;100029.34;5178387;28;20042;-78
2021/07/25 10:43:06;;;;;;;10.85;8.00;;;;;;;27.36;70.71;100031.06;5174766;28;20022;-77
2021/07/25 10:45:36;;;;;;;13.95;7.82;;;;;;;27.76;72.17;100039.78;5177555;28;20033;-78
2021/07/25 10:48:15;;;;;;;11.50;7.63;;;;;;;27.74;70.62;100033.75;5179937;28;20090;-78
2021/07/25 10:50:45;;;;;;;11.75;8.30;;;;;;;28.39;70.49;100029.63;5173192;28;20085;-78
2021/07/25 10:53:22;;;;;;;12.47;8.07;;;;;;;28.23;67.62;100031.56;5173068;28;20034;-78
2021/07/25 10:55:52;;;;;;;9.90;7.50;;;;;;;28.75;66.66;100036.84;5169003;28;20273;-77
2021/07/25 10:58:24;;;;;;;12.38;8.10;;;;;;;28.86;69.25;100030.22;5166925;28;20454;-78
2021/07/25 11:00:56;;;;;;;9.88;7.07;;;;;;;29.05;66.69;100033.19;5162619;28;20062;-76
2021/07/25 11:03:34;;;;;;;11.48;8.38;;;;;;;29.33;66.14;100033.38;5166113;28;20018;-78
2021/07/25 11:06:09;;;;;;;14.55;8.15;;;;;;;28.84;67.00;100037.59;5163521;28;20045;-77
2021/07/25 11:08:44;;;;;;;13.75;8.57;;;;;;;29.11;66.14;100045.94;5166302;28;20094;-78
2021/07/25 11:11:26;;;;;;;11.30;8.93;;;;;;;28.86;64.71;100039.09;5168119;28;20030;-78
2021/07/25 11:13:56;;;;;;;13.82;8.60;;;;;;;28.35;67.47;100039.09;5168708;28;20057;-77
2021/07/25 11:16:30;;;;;;;12.32;8.02;;;;;;;28.36;66.32;100048.81;5169690;28;20492;-77
2021/07/25 11:19:23;;;;;;;11.55;7.93;;;;;;;28.22;66.21;100046.88;5167160;28;20031;-78
2021/07/25 11:21:53;;;;;;;11.98;8.20;;;;;;;27.76;69.49;100044.34;5170054;28;20082;-78
2021/07/25 11:24:24;;;;;;;15.02;8.20;;;;;;;28.12;65.85;100040.06;5174297;28;20312;-77
2021/07/25 11:26:59;;;;;;;14.48;9.00;;;;;;;27.94;64.99;100043.03;5171749;28;20038;-78
2021/07/25 11:29:32;;;;;;;12.70;8.60;;;;;;;28.03;63.97;100041.13;5174551;28;20420;-78
2021/07/25 11:32:06;;;;;;;11.63;8.75;;;;;;;28.28;65.47;100030.03;5163702;28;20070;-78
2021/07/25 11:34:37;;;;;;;13.80;8.68;;;;;;;27.36;65.03;100029.22;5168038;28;20037;-78
2021/07/25 11:37:12;;;;;;;16.23;8.48;;;;;;;27.32;65.75;100019.84;5174670;28;20030;-79
2021/07/25 11:39:43;;;;;;;11.88;8.27;;;;;;;27.37;65.62;100027.34;5171175;28;20022;-78